sensor_id;sensor_type;location;lat;lon;timestamp;pressure;altitude;pressure_sealevel;temperature;humidity
40612;BME280;26317;44.894;20.286;2022-12-17T00:00:28;100086.03;;;10.43;100.00
40612;BME280;26317;44.894;20.286;2022-12-17T00:03:19;100079.94;;;10.32;100.00
40612;BME280;26317;44.894;20.286;2022-12-17T00:06:15;100100.06;;;10.30;100.00
40612;BME280;26317;44.894;20.286;2022-12-17T00:08:59;100047.25;;;10.35;100.00
40612;BME280;26317;44.894;20.286;2022-12-17T00:11:42;99944.66;;;10.25;100.00
40612;BME280;26317;44.894;20.286;2022-12-17T00:14:30;99942.22;;;9.94;100.00
40612;BME280;26317;44.894;20.286;2022-12-17T00:17:21;99953.66;;;9.71;100.00
40612;BME280;26317;44.894;20.286;2022-12-17T00:20:09;100001.69;;;9.52;100.00
40612;BME280;26317;44.894;20.286;2022-12-17T00:22:58;100071.53;;;9.61;100.00
40612;BME280;26317;44.894;20.286;2022-12-17T00:25:48;100143.22;;;9.74;100.00
40612;BME280;26317;44.894;20.286;2022-12-17T00:28:40;100170.81;;;9.80;100.00
40612;BME280;26317;44.894;20.286;2022-12-17T00:31:26;100147.75;;;9.84;100.00
40612;BME280;26317;44.894;20.286;2022-12-17T00:34:12;100152.78;;;9.95;100.00
40612;BME280;26317;44.894;20.286;2022-12-17T00:37:14;100129.72;;;9.94;100.00
40612;BME280;26317;44.894;20.286;2022-12-17T00:40:13;100083.38;;;9.94;100.00
40612;BME280;26317;44.894;20.286;2022-12-17T00:43:02;100053.91;;;9.99;100.00
40612;BME280;26317;44.894;20.286;2022-12-17T00:45:52;100084.69;;;10.01;100.00
40612;BME280;26317;44.894;20.286;2022-12-17T00:48:51;100112.09;;;9.88;100.00
40612;BME280;26317;44.894;20.286;2022-12-17T00:51:38;100125.78;;;9.82;100.00
40612;BME280;26317;44.894;20.286;2022-12-17T00:54:33;100102.34;;;9.48;100.00
40612;BME280;26317;44.894;20.286;2022-12-17T00:57:22;100112.50;;;9.56;100.00
40612;BME280;26317;44.894;20.286;2022-12-17T01:00:10;100127.22;;;9.64;100.00
40612;BME280;26317;44.894;20.286;2022-12-17T01:03:07;100153.38;;;9.77;100.00
40612;BME280;26317;44.894;20.286;2022-12-17T01:05:51;100134.28;;;9.94;100.00
40612;BME280;26317;44.894;20.286;2022-12-17T01:08:35;100133.41;;;10.08;100.00
40612;BME280;26317;44.894;20.286;2022-12-17T01:11:34;100119.13;;;10.23;100.00
40612;BME280;26317;44.894;20.286;2022-12-17T01:14:22;100105.09;;;10.36;100.00
40612;BME280;26317;44.894;20.286;2022-12-17T01:17:13;100106.38;;;10.44;100.00
40612;BME280;26317;44.894;20.286;2022-12-17T01:19:59;100117.66;;;10.46;100.00
40612;BME280;26317;44.894;20.286;2022-12-17T01:22:58;100092.34;;;10.57;100.00
40612;BME280;26317;44.894;20.286;2022-12-17T01:25:50;100034.25;;;10.47;100.00
40612;BME280;26317;44.894;20.286;2022-12-17T01:28:40;100050.16;;;10.39;100.00
40612;BME280;26317;44.894;20.286;2022-12-17T01:31:25;100065.81;;;10.27;100.00
40612;BME280;26317;44.894;20.286;2022-12-17T01:34:17;100085.31;;;10.32;100.00
40612;BME280;26317;44.894;20.286;2022-12-17T01:36:58;100108.31;;;10.38;100.00
40612;BME280;26317;44.894;20.286;2022-12-17T01:39:49;100125.72;;;10.41;100.00
40612;BME280;26317;44.894;20.286;2022-12-17T01:42:45;100134.25;;;10.48;100.00
40612;BME280;26317;44.894;20.286;2022-12-17T01:45:35;100143.06;;;10.53;100.00
40612;BME280;26317;44.894;20.286;2022-12-17T01:48:33;100160.50;;;10.56;100.00
40612;BME280;26317;44.894;20.286;2022-12-17T01:51:24;100180.16;;;10.41;100.00
40612;BME280;26317;44.894;20.286;2022-12-17T01:54:16;100216.94;;;10.31;100.00
40612;BME280;26317;44.894;20.286;2022-12-17T01:57:19;100257.19;;;10.15;100.00
40612;BME280;26317;44.894;20.286;2022-12-17T02:00:10;100304.94;;;9.98;100.00
40612;BME280;26317;44.894;20.286;2022-12-17T02:03:13;100343.03;;;9.80;100.00
40612;BME280;26317;44.894;20.286;2022-12-17T02:06:22;100311.44;;;9.62;100.00
40612;BME280;26317;44.894;20.286;2022-12-17T02:09:13;100286.53;;;9.56;100.00
40612;BME280;26317;44.894;20.286;2022-12-17T02:12:09;100290.56;;;9.49;100.00
40612;BME280;26317;44.894;20.286;2022-12-17T02:15:04;100263.78;;;9.54;100.00
40612;BME280;26317;44.894;20.286;2022-12-17T02:18:13;100257.06;;;9.61;100.00
40612;BME280;26317;44.894;20.286;2022-12-17T02:21:04;100272.31;;;9.76;100.00
40612;BME280;26317;44.894;20.286;2022-12-17T02:24:09;100293.44;;;9.88;100.00
40612;BME280;26317;44.894;20.286;2022-12-17T02:27:10;100298.50;;;9.94;100.00
40612;BME280;26317;44.894;20.286;2022-12-17T02:29:59;100263.41;;;10.01;100.00
40612;BME280;26317;44.894;20.286;2022-12-17T02:32:47;100196.44;;;10.01;100.00
40612;BME280;26317;44.894;20.286;2022-12-17T02:35:57;100104.72;;;10.14;100.00
40612;BME280;26317;44.894;20.286;2022-12-17T02:38:42;100017.59;;;10.22;100.00
40612;BME280;26317;44.894;20.286;2022-12-17T02:41:33;99967.22;;;10.19;100.00
40612;BME280;26317;44.894;20.286;2022-12-17T02:44:34;99928.81;;;10.28;100.00
40612;BME280;26317;44.894;20.286;2022-12-17T02:47:24;99826.81;;;10.14;100.00
40612;BME280;26317;44.894;20.286;2022-12-17T02:50:22;99748.72;;;10.02;100.00
40612;BME280;26317;44.894;20.286;2022-12-17T02:53:05;99782.69;;;9.83;100.00
40612;BME280;26317;44.894;20.286;2022-12-17T02:56:06;99845.84;;;9.89;100.00
40612;BME280;26317;44.894;20.286;2022-12-17T02:58:52;99838.28;;;9.96;100.00
40612;BME280;26317;44.894;20.286;2022-12-17T03:01:39;99834.00;;;9.95;100.00
40612;BME280;26317;44.894;20.286;2022-12-17T03:04:25;99837.19;;;9.97;100.00
40612;BME280;26317;44.894;20.286;2022-12-17T03:07:11;99834.63;;;10.11;100.00
40612;BME280;26317;44.894;20.286;2022-12-17T03:09:57;99880.41;;;10.14;100.00
40612;BME280;26317;44.894;20.286;2022-12-17T03:12:46;99922.25;;;10.10;100.00
40612;BME280;26317;44.894;20.286;2022-12-17T03:15:31;99992.78;;;10.06;100.00
40612;BME280;26317;44.894;20.286;2022-12-17T03:18:29;100080.50;;;9.85;100.00
40612;BME280;26317;44.894;20.286;2022-12-17T03:21:15;100101.50;;;9.68;100.00
40612;BME280;26317;44.894;20.286;2022-12-17T03:23:58;100107.53;;;9.35;100.00
40612;BME280;26317;44.894;20.286;2022-12-17T03:26:45;100180.00;;;9.48;100.00
40612;BME280;26317;44.894;20.286;2022-12-17T03:29:32;100202.47;;;9.52;100.00
40612;BME280;26317;44.894;20.286;2022-12-17T03:32:31;100220.69;;;9.50;100.00
40612;BME280;26317;44.894;20.286;2022-12-17T03:35:16;100271.56;;;9.50;100.00
40612;BME280;26317;44.894;20.286;2022-12-17T03:38:06;100291.09;;;9.46;100.00
40612;BME280;26317;44.894;20.286;2022-12-17T03:40:53;100317.84;;;9.15;100.00
40612;BME280;26317;44.894;20.286;2022-12-17T03:43:47;100327.75;;;9.05;100.00
40612;BME280;26317;44.894;20.286;2022-12-17T03:46:30;100323.44;;;8.94;100.00
40612;BME280;26317;44.894;20.286;2022-12-17T03:49:13;100338.13;;;8.81;100.00
40612;BME280;26317;44.894;20.286;2022-12-17T03:52:12;100352.47;;;8.50;100.00
40612;BME280;26317;44.894;20.286;2022-12-17T03:54:58;100356.03;;;8.23;100.00
40612;BME280;26317;44.894;20.286;2022-12-17T03:57:44;100374.88;;;7.97;100.00
40612;BME280;26317;44.894;20.286;2022-12-17T04:00:28;100386.75;;;7.79;100.00
40612;BME280;26317;44.894;20.286;2022-12-17T04:03:11;100397.81;;;7.98;100.00
40612;BME280;26317;44.894;20.286;2022-12-17T04:06:09;100392.78;;;8.01;100.00
40612;BME280;26317;44.894;20.286;2022-12-17T04:09:08;100393.00;;;7.95;100.00
40612;BME280;26317;44.894;20.286;2022-12-17T04:11:52;100400.25;;;7.99;100.00
40612;BME280;26317;44.894;20.286;2022-12-17T04:14:52;100390.13;;;8.06;100.00
40612;BME280;26317;44.894;20.286;2022-12-17T04:17:38;100396.56;;;8.10;100.00
40612;BME280;26317;44.894;20.286;2022-12-17T04:20:26;100400.31;;;8.09;100.00
40612;BME280;26317;44.894;20.286;2022-12-17T04:23:13;100414.16;;;8.06;100.00
40612;BME280;26317;44.894;20.286;2022-12-17T04:26:09;100420.56;;;8.00;100.00
40612;BME280;26317;44.894;20.286;2022-12-17T04:28:53;100394.28;;;7.87;100.00
40612;BME280;26317;44.894;20.286;2022-12-17T04:31:40;100332.59;;;7.47;100.00
40612;BME280;26317;44.894;20.286;2022-12-17T04:34:25;100299.22;;;7.12;100.00
40612;BME280;26317;44.894;20.286;2022-12-17T04:37:11;100285.09;;;6.85;100.00
40612;BME280;26317;44.894;20.286;2022-12-17T04:39:55;100274.00;;;6.44;100.00
40612;BME280;26317;44.894;20.286;2022-12-17T04:42:42;100259.44;;;6.25;100.00
40612;BME280;26317;44.894;20.286;2022-12-17T04:45:37;100261.22;;;6.41;100.00
40612;BME280;26317;44.894;20.286;2022-12-17T04:48:24;100264.94;;;6.19;100.00
40612;BME280;26317;44.894;20.286;2022-12-17T04:51:07;100270.19;;;6.14;100.00
40612;BME280;26317;44.894;20.286;2022-12-17T04:53:50;100289.69;;;6.19;100.00
40612;BME280;26317;44.894;20.286;2022-12-17T04:56:47;100313.94;;;6.18;100.00
40612;BME280;26317;44.894;20.286;2022-12-17T04:59:46;100313.91;;;5.96;100.00
40612;BME280;26317;44.894;20.286;2022-12-17T05:02:31;100341.97;;;5.87;100.00
40612;BME280;26317;44.894;20.286;2022-12-17T05:05:26;100358.56;;;5.94;100.00
40612;BME280;26317;44.894;20.286;2022-12-17T05:08:10;100376.72;;;5.97;100.00
40612;BME280;26317;44.894;20.286;2022-12-17T05:10:56;100392.69;;;5.97;100.00
40612;BME280;26317;44.894;20.286;2022-12-17T05:13:46;100404.00;;;5.87;100.00
40612;BME280;26317;44.894;20.286;2022-12-17T05:16:33;100409.13;;;5.77;100.00
40612;BME280;26317;44.894;20.286;2022-12-17T05:19:18;100418.56;;;5.85;100.00
40612;BME280;26317;44.894;20.286;2022-12-17T05:22:02;100426.44;;;5.91;100.00
40612;BME280;26317;44.894;20.286;2022-12-17T05:24:49;100438.03;;;6.02;100.00
40612;BME280;26317;44.894;20.286;2022-12-17T05:27:36;100454.16;;;6.12;100.00
40612;BME280;26317;44.894;20.286;2022-12-17T05:30:20;100471.03;;;6.18;100.00
40612;BME280;26317;44.894;20.286;2022-12-17T05:33:14;100478.34;;;6.27;100.00
40612;BME280;26317;44.894;20.286;2022-12-17T05:35:57;100488.03;;;6.33;100.00
40612;BME280;26317;44.894;20.286;2022-12-17T05:38:46;100490.28;;;6.41;100.00
40612;BME280;26317;44.894;20.286;2022-12-17T05:41:49;100477.84;;;6.30;100.00
40612;BME280;26317;44.894;20.286;2022-12-17T05:44:33;100516.44;;;6.44;100.00
40612;BME280;26317;44.894;20.286;2022-12-17T05:47:18;100538.06;;;6.48;100.00
40612;BME280;26317;44.894;20.286;2022-12-17T05:50:13;100552.28;;;6.54;100.00
40612;BME280;26317;44.894;20.286;2022-12-17T05:53:02;100571.75;;;6.54;100.00
40612;BME280;26317;44.894;20.286;2022-12-17T05:55:49;100564.88;;;6.25;100.00
40612;BME280;26317;44.894;20.286;2022-12-17T05:58:37;100592.25;;;6.37;100.00
40612;BME280;26317;44.894;20.286;2022-12-17T06:01:20;100581.34;;;6.22;100.00
40612;BME280;26317;44.894;20.286;2022-12-17T06:04:08;100580.19;;;6.01;100.00
40612;BME280;26317;44.894;20.286;2022-12-17T06:06:55;100593.06;;;5.92;100.00
40612;BME280;26317;44.894;20.286;2022-12-17T06:09:40;100584.84;;;5.94;100.00
40612;BME280;26317;44.894;20.286;2022-12-17T06:12:35;100590.50;;;5.86;100.00
40612;BME280;26317;44.894;20.286;2022-12-17T06:15:18;100570.78;;;5.70;100.00
40612;BME280;26317;44.894;20.286;2022-12-17T06:18:07;100600.25;;;5.92;100.00
40612;BME280;26317;44.894;20.286;2022-12-17T06:20:51;100602.19;;;5.96;100.00
40612;BME280;26317;44.894;20.286;2022-12-17T06:23:52;100601.47;;;6.01;100.00
40612;BME280;26317;44.894;20.286;2022-12-17T06:26:41;100607.47;;;6.08;100.00
40612;BME280;26317;44.894;20.286;2022-12-17T06:29:24;100605.84;;;6.07;100.00
40612;BME280;26317;44.894;20.286;2022-12-17T06:32:07;100605.84;;;6.07;100.00
40612;BME280;26317;44.894;20.286;2022-12-17T06:34:53;100629.47;;;6.04;100.00
40612;BME280;26317;44.894;20.286;2022-12-17T06:37:38;100625.28;;;6.08;100.00
40612;BME280;26317;44.894;20.286;2022-12-17T06:40:37;100635.94;;;6.08;100.00
40612;BME280;26317;44.894;20.286;2022-12-17T06:43:19;100647.50;;;6.13;100.00
40612;BME280;26317;44.894;20.286;2022-12-17T06:46:13;100647.00;;;6.16;100.00
40612;BME280;26317;44.894;20.286;2022-12-17T06:48:56;100655.75;;;6.28;100.00
40612;BME280;26317;44.894;20.286;2022-12-17T06:51:38;100661.34;;;6.43;100.00
40612;BME280;26317;44.894;20.286;2022-12-17T06:54:35;100680.34;;;6.47;100.00
40612;BME280;26317;44.894;20.286;2022-12-17T06:57:36;100700.25;;;6.44;100.00
40612;BME280;26317;44.894;20.286;2022-12-17T07:00:21;100709.25;;;6.55;100.00
40612;BME280;26317;44.894;20.286;2022-12-17T07:03:08;100707.72;;;6.59;100.00
40612;BME280;26317;44.894;20.286;2022-12-17T07:05:51;100731.34;;;6.56;100.00
40612;BME280;26317;44.894;20.286;2022-12-17T07:08:34;100734.59;;;6.58;100.00
40612;BME280;26317;44.894;20.286;2022-12-17T07:11:27;100735.34;;;6.70;100.00
40612;BME280;26317;44.894;20.286;2022-12-17T07:14:17;100743.16;;;6.60;100.00
40612;BME280;26317;44.894;20.286;2022-12-17T07:17:11;100756.84;;;6.63;100.00
40612;BME280;26317;44.894;20.286;2022-12-17T07:19:58;100768.22;;;6.59;98.57
40612;BME280;26317;44.894;20.286;2022-12-17T07:22:42;100770.78;;;6.54;98.98
40612;BME280;26317;44.894;20.286;2022-12-17T07:25:26;100782.25;;;6.54;98.43
40612;BME280;26317;44.894;20.286;2022-12-17T07:28:10;100793.38;;;6.51;98.89
40612;BME280;26317;44.894;20.286;2022-12-17T07:31:18;100814.53;;;6.58;99.00
40612;BME280;26317;44.894;20.286;2022-12-17T07:34:01;100816.19;;;6.59;99.55
40612;BME280;26317;44.894;20.286;2022-12-17T07:36:44;100820.47;;;6.48;97.46
40612;BME280;26317;44.894;20.286;2022-12-17T07:39:39;100835.91;;;6.46;98.79
40612;BME280;26317;44.894;20.286;2022-12-17T07:48:53;100852.84;;;6.28;99.16
40612;BME280;26317;44.894;20.286;2022-12-17T07:51:37;100854.00;;;6.32;98.55
40612;BME280;26317;44.894;20.286;2022-12-17T07:54:23;100855.28;;;6.30;98.68
40612;BME280;26317;44.894;20.286;2022-12-17T07:57:13;100810.03;;;5.83;99.72
40612;BME280;26317;44.894;20.286;2022-12-17T07:59:56;100854.41;;;6.01;100.00
40612;BME280;26317;44.894;20.286;2022-12-17T08:02:45;100863.66;;;5.98;100.00
40612;BME280;26317;44.894;20.286;2022-12-17T08:05:37;100820.72;;;5.72;100.00
40612;BME280;26317;44.894;20.286;2022-12-17T08:08:23;100862.84;;;5.98;100.00
40612;BME280;26317;44.894;20.286;2022-12-17T08:11:09;100867.47;;;5.91;100.00
40612;BME280;26317;44.894;20.286;2022-12-17T08:13:52;100877.91;;;5.92;100.00
40612;BME280;26317;44.894;20.286;2022-12-17T08:16:38;100874.50;;;5.97;100.00
40612;BME280;26317;44.894;20.286;2022-12-17T08:19:22;100885.75;;;5.99;100.00
40612;BME280;26317;44.894;20.286;2022-12-17T08:22:26;100887.16;;;5.90;100.00
40612;BME280;26317;44.894;20.286;2022-12-17T08:25:09;100906.69;;;5.84;99.27
40612;BME280;26317;44.894;20.286;2022-12-17T08:27:55;100900.16;;;5.56;96.71
40612;BME280;26317;44.894;20.286;2022-12-17T08:30:42;100929.22;;;5.70;96.15
40612;BME280;26317;44.894;20.286;2022-12-17T08:33:30;100930.72;;;5.66;95.54
40612;BME280;26317;44.894;20.286;2022-12-17T08:36:14;100929.88;;;5.53;96.79
40612;BME280;26317;44.894;20.286;2022-12-17T08:39:12;100944.47;;;5.63;95.24
40612;BME280;26317;44.894;20.286;2022-12-17T08:41:56;100952.22;;;5.64;96.23
40612;BME280;26317;44.894;20.286;2022-12-17T08:44:39;100955.34;;;5.73;96.14
40612;BME280;26317;44.894;20.286;2022-12-17T08:47:35;100962.19;;;5.80;96.45
40612;BME280;26317;44.894;20.286;2022-12-17T08:50:20;100970.16;;;5.69;94.76
40612;BME280;26317;44.894;20.286;2022-12-17T08:53:28;100973.16;;;5.61;94.47
40612;BME280;26317;44.894;20.286;2022-12-17T08:56:33;100963.09;;;5.51;94.82
40612;BME280;26317;44.894;20.286;2022-12-17T08:59:24;100973.88;;;5.68;94.87
40612;BME280;26317;44.894;20.286;2022-12-17T09:02:09;100991.03;;;5.72;95.44
40612;BME280;26317;44.894;20.286;2022-12-17T09:04:52;100985.22;;;5.75;93.79
40612;BME280;26317;44.894;20.286;2022-12-17T09:07:34;100991.44;;;5.69;93.99
40612;BME280;26317;44.894;20.286;2022-12-17T09:10:20;100986.53;;;5.84;93.22
40612;BME280;26317;44.894;20.286;2022-12-17T09:13:09;100992.94;;;5.94;94.22
40612;BME280;26317;44.894;20.286;2022-12-17T09:16:05;101007.44;;;6.10;95.09
40612;BME280;26317;44.894;20.286;2022-12-17T09:18:49;100999.47;;;6.22;93.96
40612;BME280;26317;44.894;20.286;2022-12-17T09:21:35;100999.22;;;6.23;92.17
40612;BME280;26317;44.894;20.286;2022-12-17T09:24:22;100947.69;;;5.94;92.04
40612;BME280;26317;44.894;20.286;2022-12-17T09:27:10;101006.31;;;6.41;92.18
40612;BME280;26317;44.894;20.286;2022-12-17T09:29:59;101013.97;;;6.37;91.48
40612;BME280;26317;44.894;20.286;2022-12-17T09:32:45;101017.44;;;6.38;91.79
40612;BME280;26317;44.894;20.286;2022-12-17T09:35:29;101018.69;;;6.35;91.94
40612;BME280;26317;44.894;20.286;2022-12-17T09:38:17;101027.28;;;6.26;91.53
40612;BME280;26317;44.894;20.286;2022-12-17T09:41:06;101039.88;;;6.30;92.83
40612;BME280;26317;44.894;20.286;2022-12-17T09:44:04;101053.63;;;6.04;90.35
40612;BME280;26317;44.894;20.286;2022-12-17T09:47:05;101062.47;;;5.86;86.23
40612;BME280;26317;44.894;20.286;2022-12-17T09:50:11;101050.16;;;5.55;86.76
40612;BME280;26317;44.894;20.286;2022-12-17T09:53:04;101065.66;;;5.77;86.10
40612;BME280;26317;44.894;20.286;2022-12-17T09:56:00;101048.41;;;5.68;86.29
40612;BME280;26317;44.894;20.286;2022-12-17T09:58:46;101065.66;;;5.77;84.03
40612;BME280;26317;44.894;20.286;2022-12-17T10:01:34;101067.97;;;5.85;83.57
40612;BME280;26317;44.894;20.286;2022-12-17T10:04:32;101072.13;;;5.99;84.11
40612;BME280;26317;44.894;20.286;2022-12-17T10:07:28;101072.41;;;6.09;87.55
40612;BME280;26317;44.894;20.286;2022-12-17T10:10:18;101082.13;;;6.27;85.02
40612;BME280;26317;44.894;20.286;2022-12-17T10:13:03;101064.31;;;6.27;84.65
40612;BME280;26317;44.894;20.286;2022-12-17T10:15:52;101066.97;;;6.27;85.04
40612;BME280;26317;44.894;20.286;2022-12-17T10:18:52;101086.66;;;6.26;84.59
40612;BME280;26317;44.894;20.286;2022-12-17T10:21:46;101074.66;;;5.94;85.04
40612;BME280;26317;44.894;20.286;2022-12-17T10:24:31;101084.84;;;5.97;87.14
40612;BME280;26317;44.894;20.286;2022-12-17T10:27:18;101075.97;;;5.85;86.33
40612;BME280;26317;44.894;20.286;2022-12-17T10:30:12;101084.47;;;5.93;88.62
40612;BME280;26317;44.894;20.286;2022-12-17T10:32:55;101098.50;;;5.71;87.80
40612;BME280;26317;44.894;20.286;2022-12-17T10:35:40;101084.72;;;5.74;88.45
40612;BME280;26317;44.894;20.286;2022-12-17T10:38:40;101084.06;;;5.78;90.08
40612;BME280;26317;44.894;20.286;2022-12-17T10:41:26;101086.22;;;5.88;91.46
40612;BME280;26317;44.894;20.286;2022-12-17T10:44:24;101100.38;;;6.00;91.18
40612;BME280;26317;44.894;20.286;2022-12-17T10:47:12;101097.63;;;6.07;89.99
40612;BME280;26317;44.894;20.286;2022-12-17T10:50:14;101105.09;;;5.98;88.98
40612;BME280;26317;44.894;20.286;2022-12-17T10:53:14;101097.84;;;6.05;90.65
40612;BME280;26317;44.894;20.286;2022-12-17T10:56:17;101105.41;;;6.20;91.08
40612;BME280;26317;44.894;20.286;2022-12-17T10:59:30;101114.09;;;6.15;88.88
40612;BME280;26317;44.894;20.286;2022-12-17T11:02:16;101125.19;;;6.12;87.78
40612;BME280;26317;44.894;20.286;2022-12-17T11:05:06;101116.25;;;6.07;88.67
40612;BME280;26317;44.894;20.286;2022-12-17T11:07:55;101110.28;;;5.93;88.75
40612;BME280;26317;44.894;20.286;2022-12-17T11:10:49;101128.41;;;6.03;89.83
40612;BME280;26317;44.894;20.286;2022-12-17T11:13:57;101134.75;;;6.01;87.66
40612;BME280;26317;44.894;20.286;2022-12-17T11:16:46;101134.94;;;5.88;86.79
40612;BME280;26317;44.894;20.286;2022-12-17T11:19:41;101146.44;;;5.82;87.75
40612;BME280;26317;44.894;20.286;2022-12-17T11:22:31;101159.28;;;5.92;88.63
40612;BME280;26317;44.894;20.286;2022-12-17T11:25:41;101157.19;;;5.94;90.65
40612;BME280;26317;44.894;20.286;2022-12-17T11:28:37;101161.84;;;5.98;89.31
40612;BME280;26317;44.894;20.286;2022-12-17T11:34:37;101175.66;;;5.89;88.19
40612;BME280;26317;44.894;20.286;2022-12-17T11:37:34;101160.94;;;5.68;88.74
40612;BME280;26317;44.894;20.286;2022-12-17T11:40:31;101181.34;;;5.74;89.50
40612;BME280;26317;44.894;20.286;2022-12-17T11:43:25;101110.63;;;5.30;88.81
40612;BME280;26317;44.894;20.286;2022-12-17T11:46:33;101193.53;;;5.82;89.58
40612;BME280;26317;44.894;20.286;2022-12-17T11:49:39;101181.72;;;5.78;90.61
40612;BME280;26317;44.894;20.286;2022-12-17T11:52:41;101184.19;;;5.79;90.92
40612;BME280;26317;44.894;20.286;2022-12-17T11:55:37;101197.38;;;5.86;91.90
40612;BME280;26317;44.894;20.286;2022-12-17T11:58:40;101194.31;;;5.89;90.56
40612;BME280;26317;44.894;20.286;2022-12-17T12:01:36;101205.75;;;5.89;89.67
40612;BME280;26317;44.894;20.286;2022-12-17T12:04:52;101204.38;;;5.87;89.30
40612;BME280;26317;44.894;20.286;2022-12-17T12:07:50;101204.88;;;5.95;90.15
40612;BME280;26317;44.894;20.286;2022-12-17T12:10:40;101189.13;;;5.76;89.32
40612;BME280;26317;44.894;20.286;2022-12-17T12:13:36;101215.19;;;5.92;89.09
40612;BME280;26317;44.894;20.286;2022-12-17T12:16:31;101215.19;;;5.85;89.69
40612;BME280;26317;44.894;20.286;2022-12-17T12:19:20;101227.56;;;5.80;87.78
40612;BME280;26317;44.894;20.286;2022-12-17T12:22:14;101228.66;;;5.72;88.08
40612;BME280;26317;44.894;20.286;2022-12-17T12:25:26;101246.09;;;5.68;87.09
40612;BME280;26317;44.894;20.286;2022-12-17T12:28:22;101240.00;;;5.68;88.69
40612;BME280;26317;44.894;20.286;2022-12-17T12:31:21;101244.88;;;5.71;89.29
40612;BME280;26317;44.894;20.286;2022-12-17T12:34:34;101258.25;;;5.82;90.36
40612;BME280;26317;44.894;20.286;2022-12-17T12:37:20;101256.63;;;5.81;90.34
40612;BME280;26317;44.894;20.286;2022-12-17T12:40:12;101254.63;;;5.77;89.92
40612;BME280;26317;44.894;20.286;2022-12-17T12:43:16;101261.94;;;5.63;89.65
40612;BME280;26317;44.894;20.286;2022-12-17T12:46:08;101264.19;;;5.60;90.00
40612;BME280;26317;44.894;20.286;2022-12-17T12:49:03;101269.69;;;5.65;89.65
40612;BME280;26317;44.894;20.286;2022-12-17T12:51:59;101237.81;;;5.40;89.57
40612;BME280;26317;44.894;20.286;2022-12-17T12:54:54;101268.66;;;5.66;89.79
40612;BME280;26317;44.894;20.286;2022-12-17T12:57:56;101267.91;;;5.59;88.04
40612;BME280;26317;44.894;20.286;2022-12-17T13:00:53;101285.59;;;5.71;87.78
40612;BME280;26317;44.894;20.286;2022-12-17T13:03:51;101284.53;;;5.72;87.62
40612;BME280;26317;44.894;20.286;2022-12-17T13:06:45;101284.94;;;5.76;88.03
40612;BME280;26317;44.894;20.286;2022-12-17T13:09:51;101288.63;;;5.75;87.16
40612;BME280;26317;44.894;20.286;2022-12-17T13:12:43;101306.66;;;5.73;86.36
40612;BME280;26317;44.894;20.286;2022-12-17T13:15:22;101307.28;;;5.75;88.23
40612;BME280;26317;44.894;20.286;2022-12-17T13:18:03;101316.19;;;5.80;89.91
40612;BME280;26317;44.894;20.286;2022-12-17T13:20:41;101325.91;;;5.75;90.06
40612;BME280;26317;44.894;20.286;2022-12-17T13:23:33;101291.16;;;5.45;90.74
40612;BME280;26317;44.894;20.286;2022-12-17T13:26:29;101340.59;;;5.77;91.08
40612;BME280;26317;44.894;20.286;2022-12-17T13:29:34;101352.34;;;5.70;89.39
40612;BME280;26317;44.894;20.286;2022-12-17T13:32:45;101356.31;;;5.61;89.09
40612;BME280;26317;44.894;20.286;2022-12-17T13:35:34;101365.75;;;5.56;89.44
40612;BME280;26317;44.894;20.286;2022-12-17T13:38:24;101378.50;;;5.48;88.72
40612;BME280;26317;44.894;20.286;2022-12-17T13:41:09;101378.41;;;5.36;88.23
40612;BME280;26317;44.894;20.286;2022-12-17T13:43:50;101383.53;;;5.31;89.24
40612;BME280;26317;44.894;20.286;2022-12-17T13:46:41;101378.06;;;5.26;90.56
40612;BME280;26317;44.894;20.286;2022-12-17T13:49:16;101389.34;;;5.22;91.02
40612;BME280;26317;44.894;20.286;2022-12-17T13:52:02;101390.41;;;5.14;90.66
40612;BME280;26317;44.894;20.286;2022-12-17T13:54:36;101399.84;;;5.10;91.27
40612;BME280;26317;44.894;20.286;2022-12-17T13:57:08;101393.13;;;5.01;90.72
40612;BME280;26317;44.894;20.286;2022-12-17T13:59:52;101395.38;;;5.04;90.86
40612;BME280;26317;44.894;20.286;2022-12-17T14:02:26;101391.72;;;5.05;89.79
40612;BME280;26317;44.894;20.286;2022-12-17T14:05:20;101401.09;;;5.01;90.65
40612;BME280;26317;44.894;20.286;2022-12-17T14:07:56;101407.22;;;5.08;91.16
40612;BME280;26317;44.894;20.286;2022-12-17T14:10:41;101424.63;;;5.04;90.34
40612;BME280;26317;44.894;20.286;2022-12-17T14:13:35;101418.94;;;4.94;90.05
40612;BME280;26317;44.894;20.286;2022-12-17T14:16:24;101427.78;;;4.88;90.92
40612;BME280;26317;44.894;20.286;2022-12-17T14:18:58;101433.25;;;4.93;91.38
40612;BME280;26317;44.894;20.286;2022-12-17T14:21:33;101438.81;;;4.91;91.91
40612;BME280;26317;44.894;20.286;2022-12-17T14:24:12;101431.22;;;4.95;91.55
40612;BME280;26317;44.894;20.286;2022-12-17T14:26:56;101445.50;;;5.00;91.18
40612;BME280;26317;44.894;20.286;2022-12-17T14:29:33;101438.13;;;5.02;91.19
40612;BME280;26317;44.894;20.286;2022-12-17T14:32:40;101455.28;;;5.06;91.71
40612;BME280;26317;44.894;20.286;2022-12-17T14:35:27;101460.41;;;5.08;91.60
40612;BME280;26317;44.894;20.286;2022-12-17T14:38:14;101453.63;;;5.12;91.63
40612;BME280;26317;44.894;20.286;2022-12-17T14:40:48;101459.13;;;5.17;89.53
40612;BME280;26317;44.894;20.286;2022-12-17T14:43:33;101468.94;;;5.17;89.16
40612;BME280;26317;44.894;20.286;2022-12-17T14:46:09;101459.13;;;5.17;88.19
40612;BME280;26317;44.894;20.286;2022-12-17T14:49:17;101456.47;;;5.17;87.84
40612;BME280;26317;44.894;20.286;2022-12-17T14:51:55;101465.09;;;5.13;87.62